Time;durP1;ratioP1;P1;durP2;ratioP2;P2;SDS_P1;SDS_P2;PMS_P1;PMS_P2;Temp;Humidity;BMP_temperature;BMP_pressure;BME280_temperature;BME280_humidity;BME280_pressure;Samples;Min_cycle;Max_cycle;Signal;HPM_P1;HPM_P2
2021/03/18 00:00:07;;;;;;;0.00;0.00;;;8.70;59.80;;;;;;4956175;28;20042;-83
2021/03/18 00:02:33;;;;;;;2.08;0.43;;;8.70;60.00;;;;;;4963430;28;20039;-83
2021/03/18 00:04:59;;;;;;;0.13;0.10;;;8.60;60.00;;;;;;4951608;28;20035;-83
2021/03/18 00:07:26;;;;;;;4.05;0.47;;;8.60;60.20;;;;;;4958285;28;20415;-83
2021/03/18 00:09:52;;;;;;;0.40;0.22;;;8.50;60.10;;;;;;4956535;28;20023;-83
2021/03/18 00:12:19;;;;;;;0.77;0.43;;;8.50;60.20;;;;;;4965580;28;20027;-83
2021/03/18 00:14:45;;;;;;;0.00;0.00;;;8.50;60.30;;;;;;4958347;28;20046;-83
2021/03/18 00:17:11;;;;;;;2.08;0.50;;;8.50;60.40;;;;;;4954618;28;20039;-83
2021/03/18 00:19:37;;;;;;;0.00;0.00;;;8.50;60.50;;;;;;4957059;28;20047;-83
2021/03/18 00:22:03;;;;;;;0.63;0.30;;;8.40;60.50;;;;;;4959705;28;20027;-83
2021/03/18 00:24:29;;;;;;;0.40;0.00;;;8.40;60.50;;;;;;4956712;28;20608;-83
2021/03/18 00:26:55;;;;;;;0.70;0.30;;;8.40;60.50;;;;;;4967589;28;20487;-83
2021/03/18 00:29:21;;;;;;;7.93;0.20;;;8.40;60.50;;;;;;4949594;28;20050;-83
2021/03/18 00:31:47;;;;;;;2.58;0.73;;;8.40;60.70;;;;;;4957077;28;20031;-83
2021/03/18 00:34:14;;;;;;;0.32;0.22;;;8.40;60.80;;;;;;4951159;28;20047;-83
2021/03/18 00:36:40;;;;;;;3.35;0.47;;;8.30;60.80;;;;;;4954438;28;20388;-83
2021/03/18 00:39:07;;;;;;;2.75;0.63;;;8.30;60.90;;;;;;4963203;28;20031;-83
2021/03/18 00:41:33;;;;;;;0.52;0.25;;;8.30;61.00;;;;;;4967332;28;20031;-83
2021/03/18 00:43:59;;;;;;;9.85;0.65;;;8.30;62.00;;;;;;4971064;28;20027;-82
2021/03/18 00:46:25;;;;;;;4.40;0.60;;;8.30;61.30;;;;;;4960956;28;20042;-83
2021/03/18 00:48:51;;;;;;;0.30;0.10;;;8.30;61.30;;;;;;4958075;28;20384;-83
2021/03/18 00:51:17;;;;;;;8.23;0.43;;;8.30;61.30;;;;;;4945780;28;20035;-83
2021/03/18 00:53:45;;;;;;;2.60;0.40;;;8.30;61.20;;;;;;4958316;28;20039;-83
2021/03/18 00:56:20;;;;;;;0.20;0.00;;;8.30;61.20;;;;;;4963795;28;20047;-82
2021/03/18 00:58:46;;;;;;;0.60;0.30;;;8.30;61.20;;;;;;4946660;28;20031;-83
2021/03/18 01:01:13;;;;;;;0.10;0.00;;;8.30;61.10;;;;;;4948997;28;20039;-82
2021/03/18 01:03:40;;;;;;;1.08;0.10;;;8.30;61.10;;;;;;4973812;28;20027;-83
2021/03/18 01:06:27;;;;;;;0.85;0.35;;;8.40;61.10;;;;;;4942030;28;20051;-83
2021/03/18 01:08:55;;;;;;;1.23;0.25;;;8.30;61.10;;;;;;4961318;28;20058;-83
2021/03/18 01:11:26;;;;;;;1.25;0.30;;;8.30;61.00;;;;;;4961114;28;20470;-83
2021/03/18 01:13:57;;;;;;;4.85;0.55;;;8.30;61.10;;;;;;4942050;28;20039;-83
2021/03/18 01:16:25;;;;;;;0.65;0.20;;;8.30;61.20;;;;;;4966074;28;20034;-83
2021/03/18 01:18:57;;;;;;;0.75;0.30;;;8.30;61.20;;;;;;4932820;28;20029;-83
2021/03/18 01:21:25;;;;;;;1.08;0.45;;;8.30;61.30;;;;;;4955411;28;20027;-83
2021/03/18 01:23:51;;;;;;;0.13;0.00;;;8.30;61.30;;;;;;4952009;28;20034;-82
2021/03/18 01:26:17;;;;;;;1.65;0.17;;;8.30;61.30;;;;;;4966225;28;20026;-83
2021/03/18 01:28:43;;;;;;;0.32;0.20;;;8.30;61.30;;;;;;4970278;28;20446;-83
2021/03/18 01:31:10;;;;;;;0.20;0.00;;;8.20;61.30;;;;;;4949072;28;20039;-83
2021/03/18 01:33:37;;;;;;;1.17;0.13;;;8.20;61.40;;;;;;4973458;28;20034;-83
2021/03/18 01:36:04;;;;;;;0.10;0.00;;;8.20;61.40;;;;;;4950387;28;20047;-82
2021/03/18 01:38:30;;;;;;;1.38;0.52;;;8.20;61.50;;;;;;4950856;28;20515;-83
2021/03/18 01:40:57;;;;;;;0.52;0.28;;;8.20;61.50;;;;;;4950080;29;20419;-83
2021/03/18 01:43:24;;;;;;;0.10;0.10;;;8.20;61.50;;;;;;4947405;28;20039;-83
2021/03/18 01:45:50;;;;;;;0.35;0.20;;;8.20;61.60;;;;;;4942350;28;20111;-83
2021/03/18 01:48:16;;;;;;;0.82;0.20;;;8.10;61.60;;;;;;4971829;28;20049;-83
2021/03/18 01:50:43;;;;;;;0.52;0.22;;;8.10;61.70;;;;;;4942228;28;20381;-83
2021/03/18 01:53:09;;;;;;;1.13;0.13;;;8.10;61.80;;;;;;4966635;28;20041;-83
2021/03/18 01:55:37;;;;;;;5.88;0.32;;;8.10;61.90;;;;;;4968191;28;20046;-83
2021/03/18 01:58:04;;;;;;;0.10;0.10;;;8.10;61.90;;;;;;4956013;28;20049;-83
2021/03/18 02:00:30;;;;;;;0.22;0.00;;;8.10;61.80;;;;;;4955268;28;20043;-83
2021/03/18 02:02:57;;;;;;;0.00;0.00;;;8.10;61.80;;;;;;4953498;28;20046;-83
2021/03/18 02:05:23;;;;;;;0.50;0.20;;;8.10;61.80;;;;;;4961507;28;20374;-83
2021/03/18 02:07:52;;;;;;;1.17;0.28;;;8.10;61.90;;;;;;4941552;28;20046;-83
2021/03/18 02:10:23;;;;;;;0.38;0.20;;;8.00;61.90;;;;;;4948419;28;20031;-83
2021/03/18 02:12:49;;;;;;;2.13;0.60;;;8.00;62.80;;;;;;4957446;28;20503;-83
2021/03/18 02:15:15;;;;;;;1.17;0.10;;;8.00;62.10;;;;;;4957363;28;20022;-82
2021/03/18 02:17:43;;;;;;;0.10;0.00;;;8.00;62.10;;;;;;4960251;28;20627;-83
2021/03/18 02:20:52;;;;;;;2.08;0.68;;;7.90;62.10;;;;;;4958689;28;20034;-83
2021/03/18 02:23:52;;;;;;;0.22;0.10;;;7.90;62.30;;;;;;4949087;29;20031;-83
2021/03/18 02:26:33;;;;;;;0.38;0.10;;;7.80;62.40;;;;;;4957385;28;20480;-83
2021/03/18 02:29:30;;;;;;;0.93;0.38;;;7.80;62.50;;;;;;4956272;28;20063;-82
2021/03/18 02:32:18;;;;;;;1.02;0.40;;;7.70;62.50;;;;;;4945407;28;20039;-83
2021/03/18 02:34:53;;;;;;;0.20;0.20;;;7.70;62.50;;;;;;4960527;28;20039;-83
2021/03/18 02:37:19;;;;;;;1.33;0.38;;;7.70;62.60;;;;;;4966879;28;20030;-83
2021/03/18 02:40:15;;;;;;;0.68;0.32;;;7.70;62.70;;;;;;4940731;28;20087;-82
2021/03/18 02:42:42;;;;;;;0.25;0.15;;;7.60;62.70;;;;;;4954869;28;20050;-82
2021/03/18 02:45:08;;;;;;;0.13;0.08;;;7.70;62.90;;;;;;4942305;28;20356;-83
2021/03/18 02:47:35;;;;;;;0.38;0.20;;;7.60;62.80;;;;;;4949835;29;20043;-83
2021/03/18 02:50:01;;;;;;;2.28;0.75;;;7.60;62.90;;;;;;4959430;28;20476;-82
2021/03/18 02:52:29;;;;;;;1.17;0.22;;;7.60;62.90;;;;;;4965507;28;20027;-83
2021/03/18 02:54:59;;;;;;;0.95;0.35;;;7.60;63.10;;;;;;4956854;28;20022;-82
2021/03/18 02:57:26;;;;;;;0.68;0.20;;;7.60;63.00;;;;;;4924367;28;20031;-84
2021/03/18 02:59:53;;;;;;;0.08;0.00;;;7.60;63.00;;;;;;4969476;28;20031;-83
2021/03/18 03:02:21;;;;;;;0.25;0.15;;;7.60;63.10;;;;;;4937656;28;20042;-83
2021/03/18 03:04:47;;;;;;;0.43;0.30;;;7.60;63.20;;;;;;4933531;28;20396;-83
2021/03/18 03:07:13;;;;;;;0.20;0.10;;;7.60;63.30;;;;;;4941064;29;20527;-82
2021/03/18 03:09:43;;;;;;;2.33;0.20;;;7.60;63.30;;;;;;4940994;29;20055;-83
2021/03/18 03:12:09;;;;;;;0.85;0.22;;;7.60;63.30;;;;;;4962515;28;20378;-82
2021/03/18 03:14:35;;;;;;;0.77;0.25;;;7.60;63.30;;;;;;4940888;29;20108;-83
2021/03/18 03:17:02;;;;;;;0.47;0.20;;;7.60;63.30;;;;;;4940238;29;20046;-83
2021/03/18 03:19:29;;;;;;;0.20;0.10;;;7.60;63.30;;;;;;4924807;29;20028;-83
2021/03/18 03:21:55;;;;;;;2.03;0.32;;;7.60;63.50;;;;;;4944871;29;20495;-83
2021/03/18 03:24:21;;;;;;;0.73;0.35;;;7.60;63.50;;;;;;4947566;29;20039;-83
2021/03/18 03:26:47;;;;;;;0.20;0.13;;;7.60;63.60;;;;;;4953017;28;20047;-83
2021/03/18 03:29:14;;;;;;;0.43;0.13;;;7.60;63.70;;;;;;4927223;29;20036;-83
2021/03/18 03:31:40;;;;;;;0.85;0.43;;;7.60;63.90;;;;;;4937926;29;20082;-83
2021/03/18 03:34:06;;;;;;;0.55;0.15;;;7.50;64.00;;;;;;4946244;29;20484;-83
2021/03/18 03:36:33;;;;;;;0.60;0.23;;;7.50;64.10;;;;;;4951704;28;20043;-83
2021/03/18 03:39:00;;;;;;;0.40;0.10;;;7.50;64.10;;;;;;4949013;28;20027;-83
2021/03/18 03:41:26;;;;;;;6.10;0.90;;;7.50;64.20;;;;;;4917450;29;20044;-83
2021/03/18 03:43:52;;;;;;;1.02;0.47;;;7.50;64.30;;;;;;4940505;29;20027;-83
2021/03/18 03:46:18;;;;;;;0.70;0.32;;;7.50;64.80;;;;;;4941261;28;20044;-83
2021/03/18 03:48:44;;;;;;;17.45;1.08;;;7.50;64.80;;;;;;4935381;29;20047;-83
2021/03/18 03:51:10;;;;;;;0.10;0.00;;;7.50;64.80;;;;;;4948012;29;20031;-82
2021/03/18 03:53:40;;;;;;;1.13;0.57;;;7.50;65.00;;;;;;4940463;29;20379;-83
2021/03/18 03:56:53;;;;;;;3.63;0.68;;;7.50;65.50;;;;;;4956831;28;20038;-83
2021/03/18 03:59:21;;;;;;;0.85;0.55;;;7.50;65.60;;;;;;4887322;29;20097;-82
2021/03/18 04:01:53;;;;;;;2.33;0.67;;;7.50;65.80;;;;;;4885161;29;20033;-83
2021/03/18 04:04:22;;;;;;;;;;;7.50;65.80;;;;;;4890215;29;20056;-83
2021/03/18 04:06:53;;;;;;;0.28;0.10;;;7.50;65.80;;;;;;4879550;29;19950;-83
2021/03/18 04:09:19;;;;;;;7.20;0.50;;;7.50;65.90;;;;;;4875383;29;20036;-85
2021/03/18 04:11:45;;;;;;;0.70;0.00;;;7.50;65.90;;;;;;4865169;29;20049;-83
2021/03/18 04:14:12;;;;;;;3.28;0.20;;;7.50;65.90;;;;;;4852070;29;20041;-80
2021/03/18 04:16:41;;;;;;;0.00;0.00;;;7.50;65.70;;;;;;4851457;29;20037;-79
2021/03/18 04:19:07;;;;;;;1.05;0.77;;;7.50;65.60;;;;;;4865410;29;20494;-80
2021/03/18 04:21:39;;;;;;;0.80;0.25;;;7.60;65.70;;;;;;4860938;29;20044;-81
2021/03/18 04:24:06;;;;;;;0.68;0.43;;;7.60;65.60;;;;;;4860667;29;20045;-83
2021/03/18 04:26:33;;;;;;;0.17;0.10;;;7.60;65.60;;;;;;4868973;29;20506;-84
2021/03/18 04:29:00;;;;;;;0.43;0.20;;;7.60;65.70;;;;;;4880775;29;20037;-84
2021/03/18 04:31:27;;;;;;;5.15;0.55;;;7.60;65.80;;;;;;4918409;29;20043;-85
2021/03/18 04:33:54;;;;;;;0.93;0.38;;;7.60;66.00;;;;;;4930866;29;20032;-89
2021/03/18 04:36:20;;;;;;;0.88;0.28;;;7.60;66.10;;;;;;4934384;29;20028;-83
2021/03/18 04:38:46;;;;;;;0.70;0.13;;;7.60;66.30;;;;;;4921628;29;20042;-82
2021/03/18 04:41:12;;;;;;;0.98;0.30;;;7.70;66.30;;;;;;4924198;29;20028;-83
2021/03/18 04:43:38;;;;;;;0.55;0.43;;;7.70;66.40;;;;;;4920050;29;20050;-83
2021/03/18 04:46:05;;;;;;;1.33;0.75;;;7.80;66.50;;;;;;4916399;29;20032;-82
2021/03/18 04:48:31;;;;;;;5.47;1.02;;;7.80;66.40;;;;;;4926179;29;20054;-80
2021/03/18 04:50:57;;;;;;;0.00;0.00;;;7.90;66.40;;;;;;4942068;29;20039;-79
2021/03/18 04:53:23;;;;;;;2.28;0.73;;;7.90;66.40;;;;;;4928774;29;20031;-79
2021/03/18 04:55:50;;;;;;;1.45;0.40;;;7.80;66.60;;;;;;4927126;29;20028;-79
2021/03/18 04:58:17;;;;;;;0.40;0.17;;;7.80;66.60;;;;;;4905800;29;20054;-80
2021/03/18 05:00:43;;;;;;;0.20;0.05;;;7.70;66.70;;;;;;4899808;29;20044;-79
2021/03/18 05:03:09;;;;;;;9.63;0.80;;;7.70;66.90;;;;;;4934257;29;20055;-79
2021/03/18 05:05:36;;;;;;;4.80;0.35;;;7.60;66.90;;;;;;4926904;29;20047;-79
2021/03/18 05:08:02;;;;;;;1.27;0.43;;;7.60;67.10;;;;;;4921547;29;20044;-79
2021/03/18 05:10:31;;;;;;;0.20;0.10;;;7.50;67.20;;;;;;4927643;29;20044;-79
2021/03/18 05:12:58;;;;;;;0.55;0.28;;;7.50;67.40;;;;;;4932513;29;20308;-79
2021/03/18 05:15:24;;;;;;;2.20;0.80;;;7.50;67.40;;;;;;4910603;28;20035;-79
2021/03/18 05:17:50;;;;;;;1.08;0.20;;;7.50;67.60;;;;;;4941884;29;20055;-80
2021/03/18 05:20:19;;;;;;;9.07;1.08;;;7.50;67.40;;;;;;4898479;29;20055;-79
2021/03/18 05:22:46;;;;;;;1.20;0.52;;;7.50;67.40;;;;;;4913180;29;20043;-79
2021/03/18 05:25:12;;;;;;;1.77;0.43;;;7.50;67.30;;;;;;4916009;29;20059;-79
2021/03/18 05:27:38;;;;;;;0.13;0.10;;;7.50;67.20;;;;;;4934096;29;20036;-79
2021/03/18 05:30:06;;;;;;;1.25;0.95;;;7.50;67.30;;;;;;4911625;29;20393;-80
2021/03/18 05:32:33;;;;;;;0.45;0.20;;;7.60;67.20;;;;;;4925245;29;20032;-80
2021/03/18 05:34:59;;;;;;;0.30;0.00;;;7.60;67.10;;;;;;4932583;29;20020;-80
2021/03/18 05:37:25;;;;;;;0.57;0.22;;;7.60;67.10;;;;;;4916288;29;20028;-81
2021/03/18 05:39:51;;;;;;;1.88;0.32;;;7.60;67.10;;;;;;4934261;29;20477;-82
2021/03/18 05:42:17;;;;;;;0.45;0.30;;;7.60;67.10;;;;;;4932433;29;20032;-81
2021/03/18 05:44:46;;;;;;;2.00;0.77;;;7.60;67.00;;;;;;4923166;29;20040;-80
2021/03/18 05:47:13;;;;;;;2.90;0.73;;;7.70;67.10;;;;;;4935339;29;20032;-79
2021/03/18 05:49:39;;;;;;;1.90;0.47;;;7.70;67.10;;;;;;4931303;29;20064;-80
2021/03/18 05:52:08;;;;;;;0.80;0.40;;;7.70;67.10;;;;;;4931790;29;20035;-80
2021/03/18 05:54:35;;;;;;;1.95;0.95;;;7.70;67.20;;;;;;4931609;29;20392;-79
2021/03/18 05:57:01;;;;;;;1.48;0.60;;;7.70;67.20;;;;;;4940641;29;20039;-79
2021/03/18 05:59:28;;;;;;;1.00;0.63;;;7.70;67.30;;;;;;4931710;29;20404;-80
2021/03/18 06:01:55;;;;;;;0.77;0.40;;;7.70;67.30;;;;;;4939483;29;20031;-80
2021/03/18 06:04:22;;;;;;;0.73;0.30;;;7.70;67.40;;;;;;4916258;29;20036;-79
2021/03/18 06:06:48;;;;;;;0.60;0.38;;;7.70;67.40;;;;;;4949961;28;20044;-79
2021/03/18 06:09:15;;;;;;;0.22;0.08;;;7.70;67.30;;;;;;4940551;29;20051;-80
2021/03/18 06:11:41;;;;;;;0.95;0.38;;;7.70;67.30;;;;;;4904207;29;20405;-80
2021/03/18 06:14:07;;;;;;;0.20;0.20;;;7.70;67.40;;;;;;4927291;29;20508;-79
2021/03/18 06:16:33;;;;;;;4.78;0.95;;;7.70;67.30;;;;;;4927484;29;20031;-79
2021/03/18 06:19:01;;;;;;;3.65;0.85;;;7.70;67.30;;;;;;4931758;29;20032;-79
2021/03/18 06:21:47;;;;;;;0.45;0.28;;;7.70;67.30;;;;;;4929429;29;20028;-82
2021/03/18 06:24:15;;;;;;;0.40;0.10;;;7.70;67.40;;;;;;4931238;29;20028;-81
2021/03/18 06:26:41;;;;;;;0.00;0.00;;;7.80;67.50;;;;;;4922617;29;20488;-80
2021/03/18 06:29:30;;;;;;;0.28;0.20;;;7.70;67.60;;;;;;4918770;29;20039;-81
2021/03/18 06:31:59;;;;;;;0.30;0.00;;;7.70;67.80;;;;;;4929082;28;20409;-80
2021/03/18 06:34:48;;;;;;;0.00;0.00;;;7.70;67.90;;;;;;4932242;29;20031;-82
2021/03/18 06:37:47;;;;;;;0.98;0.43;;;7.70;68.00;;;;;;4944752;28;20028;-80
2021/03/18 06:40:24;;;;;;;4.45;0.30;;;7.70;68.10;;;;;;4932589;29;20044;-79
2021/03/18 06:42:56;;;;;;;1.27;0.32;;;7.70;68.10;;;;;;4917669;29;20044;-80
2021/03/18 06:45:22;;;;;;;1.40;0.98;;;7.70;68.10;;;;;;4919104;28;20046;-80
2021/03/18 06:47:51;;;;;;;2.50;0.40;;;7.80;68.10;;;;;;4914481;29;20064;-79
2021/03/18 06:50:20;;;;;;;0.95;0.63;;;7.80;68.10;;;;;;4945029;29;20400;-79
2021/03/18 06:52:46;;;;;;;1.95;0.57;;;7.80;68.10;;;;;;4922758;29;20020;-79
2021/03/18 06:55:23;;;;;;;2.33;0.88;;;7.90;68.10;;;;;;4931846;29;20412;-79
2021/03/18 06:57:50;;;;;;;0.57;0.40;;;8.00;67.90;;;;;;4934231;29;20504;-80
2021/03/18 07:00:32;;;;;;;3.58;1.33;;;8.10;67.70;;;;;;4939011;28;20035;-80
2021/03/18 07:02:58;;;;;;;0.28;0.17;;;8.10;67.70;;;;;;4908234;29;20052;-80
2021/03/18 07:05:24;;;;;;;0.40;0.32;;;8.20;67.80;;;;;;4932237;29;20054;-79
2021/03/18 07:07:50;;;;;;;2.42;0.82;;;8.20;67.80;;;;;;4923095;29;20036;-80
2021/03/18 07:10:17;;;;;;;0.05;0.03;;;8.20;67.70;;;;;;4916446;29;20048;-80
2021/03/18 07:12:43;;;;;;;0.10;0.00;;;8.20;67.90;;;;;;4932136;29;20047;-79
2021/03/18 07:15:17;;;;;;;0.35;0.15;;;8.20;68.00;;;;;;4929222;28;20028;-80
2021/03/18 07:17:43;;;;;;;0.82;0.43;;;8.20;68.00;;;;;;4936760;29;20028;-80
2021/03/18 07:20:18;;;;;;;3.30;0.75;;;8.20;68.10;;;;;;4917885;29;20024;-79
2021/03/18 07:22:47;;;;;;;0.40;0.20;;;8.30;69.00;;;;;;4928591;29;20163;-79
2021/03/18 07:25:15;;;;;;;5.13;0.30;;;8.30;68.10;;;;;;4928970;29;20401;-80
2021/03/18 07:27:42;;;;;;;1.50;0.60;;;8.30;68.10;;;;;;4930817;29;20028;-80
2021/03/18 07:30:09;;;;;;;2.35;0.80;;;8.40;68.00;;;;;;4938954;28;20039;-80
2021/03/18 07:32:35;;;;;;;1.67;0.43;;;8.40;68.00;;;;;;4929096;29;20039;-80
2021/03/18 07:35:02;;;;;;;0.43;0.20;;;8.50;68.00;;;;;;4922641;29;20043;-81
2021/03/18 07:37:28;;;;;;;4.20;1.08;;;8.60;68.10;;;;;;4947235;29;20031;-80
2021/03/18 07:39:54;;;;;;;6.00;1.42;;;8.60;68.10;;;;;;4917330;29;20503;-80
2021/03/18 07:42:21;;;;;;;0.40;0.40;;;8.60;68.10;;;;;;4935453;29;20033;-80
2021/03/18 07:44:47;;;;;;;1.73;0.50;;;8.60;68.10;;;;;;4915799;29;20518;-80
2021/03/18 07:47:13;;;;;;;0.00;0.00;;;8.70;68.00;;;;;;4922762;29;20041;-80
2021/03/18 07:49:44;;;;;;;0.10;0.00;;;8.80;67.90;;;;;;4913539;29;20504;-80
2021/03/18 07:52:15;;;;;;;0.00;0.00;;;8.80;67.90;;;;;;4916727;29;20393;-80
2021/03/18 07:54:47;;;;;;;10.15;0.95;;;8.80;68.00;;;;;;4931538;29;20051;-80
2021/03/18 07:57:14;;;;;;;;;;;8.90;68.20;;;;;;4927065;29;20053;-80
2021/03/18 07:59:40;;;;;;;1.25;1.13;;;8.90;68.00;;;;;;4927243;29;19911;-80
2021/03/18 08:02:30;;;;;;;3.53;0.43;;;9.00;68.00;;;;;;4941152;28;20436;-79
2021/03/18 08:04:56;;;;;;;8.48;0.25;;;9.10;67.80;;;;;;4930318;28;20043;-80
2021/03/18 08:07:44;;;;;;;0.55;0.20;;;9.30;67.50;;;;;;4968091;28;20042;-80
2021/03/18 08:10:31;;;;;;;0.50;0.40;;;9.40;67.30;;;;;;4968219;28;20035;-79
2021/03/18 08:12:57;;;;;;;3.30;0.63;;;9.60;67.20;;;;;;4948388;28;20050;-79
2021/03/18 08:15:26;;;;;;;1.23;0.45;;;9.70;67.10;;;;;;4969165;28;20031;-80
2021/03/18 08:17:55;;;;;;;0.47;0.10;;;9.80;66.90;;;;;;4956122;28;20034;-80
2021/03/18 08:20:39;;;;;;;2.25;1.02;;;9.90;66.70;;;;;;4944613;28;20030;-80
2021/03/18 08:23:24;;;;;;;4.63;0.47;;;9.90;66.60;;;;;;4966111;28;20506;-80
2021/03/18 08:25:51;;;;;;;0.73;0.40;;;10.00;66.60;;;;;;4967404;28;20099;-79
2021/03/18 08:28:43;;;;;;;6.88;0.50;;;9.90;66.60;;;;;;4936494;28;20024;-79
2021/03/18 08:31:11;;;;;;;0.68;0.38;;;10.00;66.70;;;;;;4954845;28;20039;-80
2021/03/18 08:33:49;;;;;;;0.10;0.10;;;10.00;66.70;;;;;;4954001;28;20031;-79
2021/03/18 08:36:19;;;;;;;0.22;0.13;;;10.10;66.60;;;;;;4948677;28;20043;-79
2021/03/18 08:38:46;;;;;;;7.10;0.70;;;10.20;66.50;;;;;;4951183;28;20030;-80
2021/03/18 08:41:28;;;;;;;0.88;0.30;;;10.20;66.40;;;;;;4960037;28;20031;-79
2021/03/18 08:44:14;;;;;;;1.48;0.40;;;10.30;66.30;;;;;;4959950;28;20023;-80
2021/03/18 08:46:49;;;;;;;9.10;1.55;;;10.30;66.20;;;;;;4966875;28;20031;-80
2021/03/18 08:49:26;;;;;;;1.98;0.30;;;10.40;66.10;;;;;;4967302;28;20104;-79
2021/03/18 08:51:52;;;;;;;0.00;0.00;;;10.40;65.90;;;;;;4923833;28;20384;-80
2021/03/18 08:54:41;;;;;;;0.77;0.30;;;10.50;65.90;;;;;;4936202;28;20053;-81
2021/03/18 08:57:08;;;;;;;1.17;0.68;;;10.50;65.90;;;;;;4971883;28;20503;-80
2021/03/18 08:59:34;;;;;;;1.30;0.70;;;10.60;65.70;;;;;;4962960;28;20501;-80
2021/03/18 09:02:02;;;;;;;1.38;0.43;;;10.50;65.50;;;;;;4943752;28;20031;-80
2021/03/18 09:04:38;;;;;;;1.20;0.43;;;10.40;65.50;;;;;;4960360;28;20495;-80
2021/03/18 09:07:05;;;;;;;1.73;0.55;;;10.30;65.60;;;;;;4955940;28;20059;-79
2021/03/18 09:09:31;;;;;;;0.15;0.03;;;10.20;65.70;;;;;;4953277;28;20383;-80
2021/03/18 09:11:57;;;;;;;0.73;0.32;;;10.20;65.70;;;;;;4959126;28;20031;-79
2021/03/18 09:14:23;;;;;;;3.20;1.40;;;10.20;65.80;;;;;;4948898;29;20039;-80
2021/03/18 09:16:49;;;;;;;1.85;0.80;;;10.30;65.80;;;;;;4962607;28;20038;-80
2021/03/18 09:19:16;;;;;;;0.28;0.28;;;10.30;65.60;;;;;;4940219;28;20023;-81
2021/03/18 09:21:46;;;;;;;2.90;0.20;;;10.40;65.30;;;;;;4972923;28;20043;-79
2021/03/18 09:24:12;;;;;;;1.20;0.38;;;10.40;65.00;;;;;;4955016;28;20031;-79
2021/03/18 09:26:40;;;;;;;1.25;0.60;;;10.40;64.90;;;;;;4948489;29;20035;-79
2021/03/18 09:29:06;;;;;;;0.00;0.00;;;10.40;64.80;;;;;;4963607;28;20035;-79
2021/03/18 09:31:33;;;;;;;0.20;0.10;;;10.40;64.70;;;;;;4968409;28;20038;-79
2021/03/18 09:33:59;;;;;;;0.20;0.00;;;10.40;64.30;;;;;;4972617;28;20399;-80
2021/03/18 09:36:30;;;;;;;0.00;0.00;;;10.30;63.90;;;;;;4968432;28;20026;-81
2021/03/18 09:39:10;;;;;;;0.00;0.00;;;10.30;64.00;;;;;;4940688;28;20042;-80
2021/03/18 09:41:40;;;;;;;0.00;0.00;;;10.40;63.90;;;;;;4968612;28;20034;-80
2021/03/18 09:44:14;;;;;;;0.68;0.10;;;10.50;63.30;;;;;;4949866;29;20038;-81
2021/03/18 09:46:43;;;;;;;3.25;0.40;;;10.60;63.00;;;;;;4960994;28;20027;-80
2021/03/18 09:49:09;;;;;;;5.18;0.45;;;10.70;62.90;;;;;;4950832;29;20050;-80
2021/03/18 09:51:37;;;;;;;6.78;0.32;;;10.80;62.60;;;;;;4971272;28;20395;-80
2021/03/18 09:54:05;;;;;;;0.32;0.22;;;11.00;62.20;;;;;;4937114;29;20050;-80
2021/03/18 09:56:39;;;;;;;1.13;0.43;;;11.20;61.70;;;;;;4944585;28;20029;-80
2021/03/18 09:59:07;;;;;;;0.10;0.08;;;11.40;61.10;;;;;;4937780;28;20039;-80
2021/03/18 10:01:33;;;;;;;1.40;0.50;;;11.50;60.80;;;;;;4937785;28;20050;-80
2021/03/18 10:04:04;;;;;;;0.35;0.28;;;11.50;60.60;;;;;;4936667;28;20027;-80
2021/03/18 10:06:32;;;;;;;0.10;0.10;;;11.50;60.60;;;;;;4968473;28;20495;-80
2021/03/18 10:09:25;;;;;;;0.80;0.22;;;11.50;60.20;;;;;;4939042;29;20039;-80
2021/03/18 10:11:54;;;;;;;0.00;0.00;;;11.50;60.00;;;;;;4956363;28;20027;-80
2021/03/18 10:14:34;;;;;;;2.95;0.55;;;11.50;59.90;;;;;;4968320;28;20038;-79
2021/03/18 10:17:00;;;;;;;0.35;0.08;;;11.50;59.80;;;;;;4964696;28;20034;-80
2021/03/18 10:19:30;;;;;;;1.40;0.35;;;11.60;59.60;;;;;;4952905;28;20504;-80
2021/03/18 10:22:07;;;;;;;1.65;0.32;;;11.60;59.60;;;;;;4954990;28;20031;-80
2021/03/18 10:24:33;;;;;;;0.45;0.25;;;11.70;59.50;;;;;;4952581;28;20365;-81
2021/03/18 10:27:11;;;;;;;0.00;0.00;;;11.90;59.90;;;;;;4958216;28;20034;-80
2021/03/18 10:29:37;;;;;;;1.58;0.30;;;12.00;58.80;;;;;;4947865;29;20031;-79
2021/03/18 10:32:11;;;;;;;0.35;0.00;;;12.10;58.70;;;;;;4965031;28;20039;-80
2021/03/18 10:34:37;;;;;;;0.75;0.68;;;12.00;58.50;;;;;;4944000;28;20019;-79
2021/03/18 10:37:03;;;;;;;2.22;0.38;;;11.90;58.50;;;;;;4951529;29;20036;-79
2021/03/18 10:39:29;;;;;;;0.40;0.20;;;11.80;58.60;;;;;;4966602;28;20042;-83
2021/03/18 10:41:57;;;;;;;3.58;0.22;;;11.70;58.60;;;;;;4957897;28;20045;-82
2021/03/18 10:44:37;;;;;;;0.00;0.00;;;11.70;58.80;;;;;;4934166;29;20042;-80
2021/03/18 10:47:19;;;;;;;2.30;0.73;;;11.70;58.50;;;;;;4962870;28;20041;-79
2021/03/18 10:50:03;;;;;;;1.00;0.10;;;11.60;58.40;;;;;;4960126;28;20047;-80
2021/03/18 10:52:29;;;;;;;0.45;0.20;;;11.60;58.50;;;;;;4934720;28;20046;-80
2021/03/18 10:54:58;;;;;;;0.10;0.08;;;11.60;58.40;;;;;;4941766;28;20034;-80
2021/03/18 10:57:25;;;;;;;0.22;0.00;;;11.60;58.10;;;;;;4950669;28;20035;-80
2021/03/18 10:59:58;;;;;;;0.00;0.00;;;11.50;58.00;;;;;;4957004;28;20510;-81
2021/03/18 11:02:28;;;;;;;0.22;0.10;;;11.50;57.80;;;;;;4952329;28;20510;-80
2021/03/18 11:04:56;;;;;;;0.00;0.00;;;11.50;57.50;;;;;;4961076;28;20419;-81
2021/03/18 11:07:22;;;;;;;0.17;0.08;;;11.60;57.20;;;;;;4967865;28;20420;-80
2021/03/18 11:10:11;;;;;;;2.28;0.22;;;11.60;57.30;;;;;;4954834;28;20499;-80
2021/03/18 11:12:40;;;;;;;2.58;0.10;;;11.60;57.40;;;;;;4973656;28;20030;-80
2021/03/18 11:15:08;;;;;;;0.00;0.00;;;11.60;57.30;;;;;;4944119;28;20050;-81
2021/03/18 11:17:34;;;;;;;1.10;0.17;;;11.60;57.30;;;;;;4946496;29;20066;-79
2021/03/18 11:20:15;;;;;;;0.30;0.28;;;11.50;57.20;;;;;;4962224;28;20501;-79
2021/03/18 11:22:41;;;;;;;2.15;0.20;;;11.50;57.40;;;;;;4941864;28;20039;-79
2021/03/18 11:25:08;;;;;;;3.22;0.20;;;11.50;57.30;;;;;;4969464;28;20027;-79
2021/03/18 11:27:35;;;;;;;0.30;0.08;;;11.40;57.40;;;;;;4952016;28;20030;-79
2021/03/18 11:30:01;;;;;;;0.45;0.25;;;11.40;57.50;;;;;;4925204;28;20123;-80
2021/03/18 11:32:27;;;;;;;0.00;0.00;;;11.50;57.40;;;;;;4966257;28;20050;-80
2021/03/18 11:34:58;;;;;;;0.00;0.00;;;11.50;57.20;;;;;;4946709;29;20038;-79
2021/03/18 11:37:24;;;;;;;1.15;0.35;;;11.50;57.10;;;;;;4941327;28;20383;-80
2021/03/18 11:39:51;;;;;;;0.43;0.22;;;11.50;57.10;;;;;;4940535;28;20038;-80
2021/03/18 11:42:17;;;;;;;0.00;0.00;;;11.50;57.10;;;;;;4957075;28;20026;-79
2021/03/18 11:44:43;;;;;;;9.00;0.43;;;11.60;57.10;;;;;;4966610;28;20046;-79
2021/03/18 11:47:10;;;;;;;0.10;0.08;;;11.70;57.10;;;;;;4963219;28;20031;-79
2021/03/18 11:49:40;;;;;;;0.20;0.00;;;11.80;57.10;;;;;;4942747;28;20042;-80
2021/03/18 11:52:06;;;;;;;1.65;0.35;;;11.90;57.00;;;;;;4968906;28;20031;-80
2021/03/18 11:54:33;;;;;;;0.03;0.03;;;11.90;56.90;;;;;;4967101;28;20026;-79
2021/03/18 11:56:59;;;;;;;0.35;0.10;;;12.00;56.90;;;;;;4937410;29;20150;-80
2021/03/18 11:59:25;;;;;;;0.28;0.10;;;11.90;57.00;;;;;;4957839;28;20046;-80
2021/03/18 12:01:51;;;;;;;0.90;0.50;;;11.90;57.10;;;;;;4952513;28;20046;-80
2021/03/18 12:04:18;;;;;;;2.72;0.98;;;11.80;57.20;;;;;;4937000;29;20054;-80
2021/03/18 12:06:44;;;;;;;0.22;0.00;;;11.70;57.30;;;;;;4970638;28;20047;-80
2021/03/18 12:09:10;;;;;;;0.60;0.20;;;11.60;57.50;;;;;;4968256;28;20361;-81
2021/03/18 12:11:36;;;;;;;0.30;0.17;;;11.50;57.70;;;;;;4963300;28;20038;-79
2021/03/18 12:14:03;;;;;;;1.95;0.30;;;11.40;57.90;;;;;;4954285;28;20049;-80
2021/03/18 12:16:29;;;;;;;0.55;0.15;;;11.30;58.00;;;;;;4954078;28;20032;-80
2021/03/18 12:18:55;;;;;;;1.50;0.30;;;11.30;58.10;;;;;;4954269;28;20043;-80
2021/03/18 12:21:21;;;;;;;8.27;0.57;;;11.40;58.20;;;;;;4964361;28;20030;-79
2021/03/18 12:23:47;;;;;;;0.00;0.00;;;11.40;58.10;;;;;;4951698;28;20031;-79
2021/03/18 12:26:14;;;;;;;0.75;0.10;;;11.60;58.00;;;;;;4960020;28;20039;-79
2021/03/18 12:28:40;;;;;;;0.22;0.00;;;11.70;57.80;;;;;;4957293;28;20039;-80
2021/03/18 12:31:06;;;;;;;0.40;0.20;;;11.70;57.80;;;;;;4968383;28;20054;-79
2021/03/18 12:33:32;;;;;;;1.25;0.63;;;11.80;57.70;;;;;;4966538;28;20499;-79
2021/03/18 12:35:58;;;;;;;1.55;0.45;;;11.80;57.70;;;;;;4969580;28;20038;-79
2021/03/18 12:38:24;;;;;;;0.08;0.00;;;11.90;57.70;;;;;;4949608;29;20396;-80
2021/03/18 12:40:52;;;;;;;1.98;0.77;;;12.10;57.60;;;;;;4944666;29;20468;-79
2021/03/18 12:43:22;;;;;;;0.35;0.20;;;12.20;57.50;;;;;;4943554;28;20036;-80
2021/03/18 12:45:48;;;;;;;0.90;0.20;;;12.20;57.30;;;;;;4956403;28;20039;-80
2021/03/18 12:48:14;;;;;;;1.40;0.60;;;12.20;57.40;;;;;;4955358;28;20479;-79
2021/03/18 12:50:41;;;;;;;1.48;0.22;;;12.20;57.40;;;;;;4959259;28;20519;-79
2021/03/18 12:53:07;;;;;;;0.50;0.10;;;12.30;57.40;;;;;;4937986;28;20035;-79
2021/03/18 12:55:34;;;;;;;0.00;0.00;;;12.30;57.20;;;;;;4927366;28;20047;-79
2021/03/18 12:58:00;;;;;;;1.25;0.20;;;12.30;57.20;;;;;;4955638;28;20479;-80
2021/03/18 13:00:34;;;;;;;0.20;0.10;;;12.30;57.20;;;;;;4952539;28;20039;-80
2021/03/18 13:03:00;;;;;;;0.32;0.08;;;12.30;57.20;;;;;;4939244;28;20046;-79